createdAt,value
2017-04-25T00:06:16.942Z,0
2017-04-25T00:16:28.044Z,0
2017-04-25T00:26:39.238Z,0
2017-04-25T00:36:50.418Z,0
2017-04-25T00:47:01.597Z,0
2017-04-25T00:57:12.831Z,0
2017-04-25T01:07:24.060Z,0
2017-04-25T01:17:35.366Z,0
2017-04-25T01:27:46.739Z,0
2017-04-25T01:37:58.127Z,0
2017-04-25T01:48:09.492Z,0
2017-04-25T01:58:20.854Z,0
2017-04-25T02:08:32.175Z,0
2017-04-25T02:18:43.489Z,0
2017-04-25T02:28:54.828Z,0
2017-04-25T02:39:06.167Z,0
2017-04-25T02:49:17.485Z,0
2017-04-25T02:59:28.805Z,0
2017-04-25T03:09:40.061Z,0
2017-04-25T03:19:51.306Z,0
2017-04-25T03:30:02.546Z,0
2017-04-25T03:40:13.837Z,0
2017-04-25T03:50:25.172Z,0
2017-04-25T04:00:36.488Z,0
2017-04-25T04:10:47.747Z,5
2017-04-25T04:20:59.010Z,10
2017-04-25T04:31:10.242Z,25
2017-04-25T04:41:21.430Z,35
2017-04-25T04:51:32.687Z,55
2017-04-25T05:01:43.869Z,90
2017-04-25T05:11:54.999Z,135
2017-04-25T05:22:06.102Z,165
2017-04-25T05:32:17.186Z,170
2017-04-25T05:42:28.185Z,270
2017-04-25T05:52:39.025Z,495
2017-04-25T06:02:49.574Z,470
2017-04-25T06:13:00.049Z,505
2017-04-25T06:23:10.587Z,455
2017-04-25T06:33:21.151Z,465
2017-04-25T06:43:31.757Z,925
2017-04-25T06:53:42.243Z,1260
2017-04-25T07:03:52.502Z,1550
2017-04-25T07:14:02.555Z,660
2017-04-25T07:24:12.721Z,685
2017-04-25T07:34:22.767Z,680
2017-04-25T07:44:32.876Z,2025
2017-04-25T07:54:42.881Z,2070
2017-04-25T08:04:52.598Z,2430
2017-04-25T08:15:02.184Z,700
2017-04-25T08:25:11.947Z,715
2017-04-25T08:35:21.919Z,2885
2017-04-25T08:45:31.989Z,1110
2017-04-25T08:55:41.811Z,2720
2017-04-25T09:05:51.544Z,865
2017-04-25T09:16:01.334Z,1895
2017-04-25T09:26:10.962Z,2505
2017-04-25T09:36:20.399Z,1615
2017-04-25T09:46:29.943Z,3860
2017-04-25T09:56:39.369Z,3940
2017-04-25T10:06:48.766Z,625
2017-04-25T10:16:58.341Z,915
2017-04-25T10:27:08.124Z,485
2017-04-25T10:37:18.124Z,1255
2017-04-25T10:47:28.000Z,4040
2017-04-25T10:57:37.747Z,3670
2017-04-25T11:07:47.293Z,1165
2017-04-25T11:17:56.821Z,120
2017-04-25T11:28:07.146Z,150
2017-04-25T11:38:17.934Z,1200
2017-04-25T11:48:28.491Z,3550
2017-04-25T11:58:38.455Z,3350
2017-04-25T12:08:47.987Z,1230
2017-04-25T12:18:57.431Z,3575
2017-04-25T12:29:06.778Z,3705
2017-04-25T12:39:16.032Z,2290
2017-04-25T12:49:25.261Z,3380
2017-04-25T12:59:34.518Z,3285
2017-04-25T13:09:43.572Z,2120
2017-04-25T13:19:52.856Z,620
2017-04-25T13:30:02.717Z,1325
2017-04-25T13:40:12.612Z,3165
2017-04-25T13:50:22.212Z,575
2017-04-25T14:00:31.999Z,845
2017-04-25T14:10:41.601Z,2340
2017-04-25T14:20:51.207Z,1120
2017-04-25T14:31:00.723Z,2390
2017-04-25T14:41:10.083Z,2880
2017-04-25T14:51:19.417Z,540
2017-04-25T15:01:28.766Z,2135
2017-04-25T15:11:38.078Z,2070
2017-04-25T15:21:47.365Z,1750
2017-04-25T15:31:56.418Z,1030
2017-04-25T15:42:05.814Z,380
2017-04-25T15:52:15.614Z,1230
2017-04-25T16:02:25.082Z,1280
2017-04-25T16:12:34.410Z,1175
2017-04-25T16:22:43.823Z,860
2017-04-25T16:32:53.261Z,325
2017-04-25T16:43:03.089Z,325
2017-04-25T16:53:13.181Z,280
2017-04-25T17:03:23.385Z,425
2017-04-25T17:13:33.341Z,490
2017-04-25T17:23:43.304Z,365
2017-04-25T17:33:53.366Z,305
2017-04-25T17:44:03.534Z,265
2017-04-25T17:54:13.758Z,200
2017-04-25T18:04:24.066Z,160
2017-04-25T18:14:34.503Z,110
2017-04-25T18:24:45.069Z,80
2017-04-25T18:34:55.798Z,40
2017-04-25T18:45:06.664Z,15
2017-04-25T18:55:17.718Z,5
2017-04-25T19:05:28.894Z,0
2017-04-25T19:15:40.131Z,0
2017-04-25T19:25:51.479Z,0
2017-04-25T19:36:02.838Z,0
2017-04-25T19:46:14.175Z,0
2017-04-25T19:56:25.611Z,0
2017-04-25T20:06:37.201Z,0
2017-04-25T20:16:48.535Z,0
2017-04-25T20:26:59.996Z,0
2017-04-25T20:37:11.462Z,0
2017-04-25T20:47:22.960Z,0
2017-04-25T20:57:34.461Z,0
2017-04-25T21:07:46.002Z,0
2017-04-25T21:17:57.518Z,0
2017-04-25T21:28:08.998Z,0
2017-04-25T21:38:20.562Z,0
2017-04-25T21:48:32.158Z,0
2017-04-25T21:58:43.786Z,0
2017-04-25T22:08:55.393Z,0
2017-04-25T22:19:07.024Z,0
2017-04-25T22:29:18.680Z,0
2017-04-25T22:39:30.386Z,0
2017-04-25T22:49:42.119Z,0
2017-04-25T22:59:53.816Z,0
2017-04-25T23:10:05.536Z,0
2017-04-25T23:20:17.260Z,0
2017-04-25T23:30:29.027Z,0
2017-04-25T23:40:40.813Z,0
2017-04-25T23:50:52.641Z,0
